sensor_id;sensor_type;location;lat;lon;timestamp;P1;durP1;ratioP1;P2;durP2;ratioP2
49548;SDS011;35450;44.518;7.466;2023-03-08T00:01:37;46.35;;;23.48;;
49548;SDS011;35450;44.518;7.466;2023-03-08T00:04:41;41.55;;;22.35;;
49548;SDS011;35450;44.518;7.466;2023-03-08T00:07:46;40.88;;;23.52;;
49548;SDS011;35450;44.518;7.466;2023-03-08T00:10:50;41.83;;;22.90;;
49548;SDS011;35450;44.518;7.466;2023-03-08T00:13:54;43.40;;;22.45;;
49548;SDS011;35450;44.518;7.466;2023-03-08T00:16:58;36.85;;;23.20;;
49548;SDS011;35450;44.518;7.466;2023-03-08T00:20:02;39.60;;;21.30;;
49548;SDS011;35450;44.518;7.466;2023-03-08T00:23:08;35.63;;;22.58;;
49548;SDS011;35450;44.518;7.466;2023-03-08T00:26:12;37.15;;;22.60;;
49548;SDS011;35450;44.518;7.466;2023-03-08T00:29:17;41.88;;;22.15;;
49548;SDS011;35450;44.518;7.466;2023-03-08T00:32:21;39.58;;;22.13;;
49548;SDS011;35450;44.518;7.466;2023-03-08T00:35:26;40.63;;;20.75;;
49548;SDS011;35450;44.518;7.466;2023-03-08T00:38:31;36.78;;;22.75;;
49548;SDS011;35450;44.518;7.466;2023-03-08T00:41:37;43.55;;;23.00;;
49548;SDS011;35450;44.518;7.466;2023-03-08T00:44:41;37.42;;;21.75;;
49548;SDS011;35450;44.518;7.466;2023-03-08T00:47:45;39.53;;;22.58;;
49548;SDS011;35450;44.518;7.466;2023-03-08T00:50:49;36.63;;;23.05;;
49548;SDS011;35450;44.518;7.466;2023-03-08T00:53:53;40.75;;;22.85;;
49548;SDS011;35450;44.518;7.466;2023-03-08T00:56:57;43.85;;;21.25;;
49548;SDS011;35450;44.518;7.466;2023-03-08T01:00:02;39.72;;;22.50;;
49548;SDS011;35450;44.518;7.466;2023-03-08T01:03:10;40.80;;;22.55;;
49548;SDS011;35450;44.518;7.466;2023-03-08T01:06:14;40.17;;;24.42;;
49548;SDS011;35450;44.518;7.466;2023-03-08T01:09:18;44.00;;;24.75;;
49548;SDS011;35450;44.518;7.466;2023-03-08T01:12:22;39.47;;;23.73;;
49548;SDS011;35450;44.518;7.466;2023-03-08T01:15:27;40.95;;;23.63;;
49548;SDS011;35450;44.518;7.466;2023-03-08T01:18:31;39.08;;;22.13;;
49548;SDS011;35450;44.518;7.466;2023-03-08T01:21:35;38.47;;;22.85;;
49548;SDS011;35450;44.518;7.466;2023-03-08T01:24:43;37.47;;;23.13;;
49548;SDS011;35450;44.518;7.466;2023-03-08T01:27:48;41.72;;;24.00;;
49548;SDS011;35450;44.518;7.466;2023-03-08T01:30:52;39.25;;;22.88;;
49548;SDS011;35450;44.518;7.466;2023-03-08T01:33:56;37.22;;;23.70;;
49548;SDS011;35450;44.518;7.466;2023-03-08T01:37:00;43.55;;;21.55;;
49548;SDS011;35450;44.518;7.466;2023-03-08T01:40:05;40.70;;;21.65;;
49548;SDS011;35450;44.518;7.466;2023-03-08T01:43:16;38.03;;;22.13;;
49548;SDS011;35450;44.518;7.466;2023-03-08T01:46:33;38.85;;;22.85;;
49548;SDS011;35450;44.518;7.466;2023-03-08T01:49:58;44.78;;;24.20;;
49548;SDS011;35450;44.518;7.466;2023-03-08T01:53:06;40.33;;;22.58;;
49548;SDS011;35450;44.518;7.466;2023-03-08T01:56:11;40.55;;;22.65;;
49548;SDS011;35450;44.518;7.466;2023-03-08T01:59:17;44.33;;;23.38;;
49548;SDS011;35450;44.518;7.466;2023-03-08T02:02:25;50.42;;;23.48;;
49548;SDS011;35450;44.518;7.466;2023-03-08T02:05:35;46.42;;;24.05;;
49548;SDS011;35450;44.518;7.466;2023-03-08T02:08:50;45.15;;;23.00;;
49548;SDS011;35450;44.518;7.466;2023-03-08T02:11:54;36.35;;;22.48;;
49548;SDS011;35450;44.518;7.466;2023-03-08T02:15:03;40.47;;;24.02;;
49548;SDS011;35450;44.518;7.466;2023-03-08T02:18:09;42.03;;;23.65;;
49548;SDS011;35450;44.518;7.466;2023-03-08T02:21:13;39.85;;;23.33;;
49548;SDS011;35450;44.518;7.466;2023-03-08T02:24:21;40.90;;;23.52;;
49548;SDS011;35450;44.518;7.466;2023-03-08T02:27:27;38.80;;;22.75;;
49548;SDS011;35450;44.518;7.466;2023-03-08T02:30:32;37.22;;;22.15;;
49548;SDS011;35450;44.518;7.466;2023-03-08T02:33:37;40.53;;;22.02;;
49548;SDS011;35450;44.518;7.466;2023-03-08T02:36:41;36.97;;;21.05;;
49548;SDS011;35450;44.518;7.466;2023-03-08T02:39:45;37.88;;;19.98;;
49548;SDS011;35450;44.518;7.466;2023-03-08T02:42:49;31.67;;;20.00;;
49548;SDS011;35450;44.518;7.466;2023-03-08T02:45:53;29.75;;;18.58;;
49548;SDS011;35450;44.518;7.466;2023-03-08T02:48:57;34.83;;;19.50;;
49548;SDS011;35450;44.518;7.466;2023-03-08T02:52:03;39.45;;;19.50;;
49548;SDS011;35450;44.518;7.466;2023-03-08T02:55:07;37.33;;;20.20;;
49548;SDS011;35450;44.518;7.466;2023-03-08T02:58:11;32.67;;;19.80;;
49548;SDS011;35450;44.518;7.466;2023-03-08T03:01:15;41.28;;;19.70;;
49548;SDS011;35450;44.518;7.466;2023-03-08T03:04:19;34.90;;;20.02;;
49548;SDS011;35450;44.518;7.466;2023-03-08T03:07:24;36.97;;;20.98;;
49548;SDS011;35450;44.518;7.466;2023-03-08T03:10:28;37.88;;;21.08;;
49548;SDS011;35450;44.518;7.466;2023-03-08T03:13:32;36.20;;;20.33;;
49548;SDS011;35450;44.518;7.466;2023-03-08T03:16:36;43.63;;;23.73;;
49548;SDS011;35450;44.518;7.466;2023-03-08T03:19:40;36.00;;;22.40;;
49548;SDS011;35450;44.518;7.466;2023-03-08T03:22:44;40.05;;;22.38;;
49548;SDS011;35450;44.518;7.466;2023-03-08T03:25:51;43.10;;;21.92;;
49548;SDS011;35450;44.518;7.466;2023-03-08T03:28:57;40.83;;;22.08;;
49548;SDS011;35450;44.518;7.466;2023-03-08T03:32:05;39.25;;;21.77;;
49548;SDS011;35450;44.518;7.466;2023-03-08T03:35:10;40.95;;;22.40;;
49548;SDS011;35450;44.518;7.466;2023-03-08T03:38:14;43.70;;;22.17;;
49548;SDS011;35450;44.518;7.466;2023-03-08T03:41:21;38.92;;;22.25;;
49548;SDS011;35450;44.518;7.466;2023-03-08T03:44:31;42.83;;;22.88;;
49548;SDS011;35450;44.518;7.466;2023-03-08T03:47:37;35.28;;;21.42;;
49548;SDS011;35450;44.518;7.466;2023-03-08T03:50:43;38.55;;;20.70;;
49548;SDS011;35450;44.518;7.466;2023-03-08T03:53:56;34.38;;;19.70;;
49548;SDS011;35450;44.518;7.466;2023-03-08T03:57:02;37.08;;;20.33;;
49548;SDS011;35450;44.518;7.466;2023-03-08T04:00:11;42.28;;;19.00;;
49548;SDS011;35450;44.518;7.466;2023-03-08T04:03:22;38.90;;;21.67;;
49548;SDS011;35450;44.518;7.466;2023-03-08T04:06:30;36.92;;;20.85;;
49548;SDS011;35450;44.518;7.466;2023-03-08T04:09:35;37.03;;;20.98;;
49548;SDS011;35450;44.518;7.466;2023-03-08T04:12:47;35.15;;;20.35;;
49548;SDS011;35450;44.518;7.466;2023-03-08T04:15:53;33.35;;;20.00;;
49548;SDS011;35450;44.518;7.466;2023-03-08T04:18:59;39.28;;;21.77;;
49548;SDS011;35450;44.518;7.466;2023-03-08T04:22:06;37.00;;;21.33;;
49548;SDS011;35450;44.518;7.466;2023-03-08T04:25:16;45.22;;;22.63;;
49548;SDS011;35450;44.518;7.466;2023-03-08T04:28:27;38.47;;;21.20;;
49548;SDS011;35450;44.518;7.466;2023-03-08T04:31:32;40.42;;;23.17;;
49548;SDS011;35450;44.518;7.466;2023-03-08T04:34:41;41.28;;;23.17;;
49548;SDS011;35450;44.518;7.466;2023-03-08T04:37:47;44.05;;;22.70;;
49548;SDS011;35450;44.518;7.466;2023-03-08T04:40:52;48.13;;;20.80;;
49548;SDS011;35450;44.518;7.466;2023-03-08T04:44:14;37.60;;;21.40;;
49548;SDS011;35450;44.518;7.466;2023-03-08T04:47:23;40.28;;;21.50;;
49548;SDS011;35450;44.518;7.466;2023-03-08T04:50:28;38.95;;;21.83;;
49548;SDS011;35450;44.518;7.466;2023-03-08T04:53:34;38.85;;;22.27;;
49548;SDS011;35450;44.518;7.466;2023-03-08T04:56:39;43.00;;;22.20;;
49548;SDS011;35450;44.518;7.466;2023-03-08T04:59:43;38.00;;;21.20;;
49548;SDS011;35450;44.518;7.466;2023-03-08T05:02:48;40.47;;;22.17;;
49548;SDS011;35450;44.518;7.466;2023-03-08T05:05:55;40.95;;;22.40;;
49548;SDS011;35450;44.518;7.466;2023-03-08T05:08:59;47.05;;;25.83;;
49548;SDS011;35450;44.518;7.466;2023-03-08T05:12:03;45.38;;;23.98;;
49548;SDS011;35450;44.518;7.466;2023-03-08T05:15:23;41.30;;;22.55;;
49548;SDS011;35450;44.518;7.466;2023-03-08T05:18:28;40.15;;;22.98;;
49548;SDS011;35450;44.518;7.466;2023-03-08T05:21:32;40.17;;;22.70;;
49548;SDS011;35450;44.518;7.466;2023-03-08T05:24:39;44.55;;;23.75;;
49548;SDS011;35450;44.518;7.466;2023-03-08T05:27:45;39.50;;;22.52;;
49548;SDS011;35450;44.518;7.466;2023-03-08T05:30:58;41.90;;;23.25;;
49548;SDS011;35450;44.518;7.466;2023-03-08T05:34:14;38.53;;;21.67;;
49548;SDS011;35450;44.518;7.466;2023-03-08T05:37:22;43.90;;;22.33;;
49548;SDS011;35450;44.518;7.466;2023-03-08T05:40:30;39.03;;;23.20;;
49548;SDS011;35450;44.518;7.466;2023-03-08T05:43:34;38.22;;;22.35;;
49548;SDS011;35450;44.518;7.466;2023-03-08T05:46:41;40.45;;;22.13;;
49548;SDS011;35450;44.518;7.466;2023-03-08T05:49:47;43.92;;;23.33;;
49548;SDS011;35450;44.518;7.466;2023-03-08T05:52:53;40.25;;;22.83;;
49548;SDS011;35450;44.518;7.466;2023-03-08T05:59:19;47.65;;;22.90;;
49548;SDS011;35450;44.518;7.466;2023-03-08T06:02:24;42.70;;;24.45;;
49548;SDS011;35450;44.518;7.466;2023-03-08T06:05:31;46.88;;;25.45;;
49548;SDS011;35450;44.518;7.466;2023-03-08T06:08:36;49.90;;;26.75;;
49548;SDS011;35450;44.518;7.466;2023-03-08T06:11:42;45.97;;;25.90;;
49548;SDS011;35450;44.518;7.466;2023-03-08T06:14:47;50.60;;;27.13;;
49548;SDS011;35450;44.518;7.466;2023-03-08T06:17:53;47.22;;;26.25;;
49548;SDS011;35450;44.518;7.466;2023-03-08T06:21:02;118.18;;;63.08;;
49548;SDS011;35450;44.518;7.466;2023-03-08T06:24:09;178.00;;;102.70;;
49548;SDS011;35450;44.518;7.466;2023-03-08T06:27:13;49.05;;;26.92;;
49548;SDS011;35450;44.518;7.466;2023-03-08T06:30:19;67.18;;;30.52;;
49548;SDS011;35450;44.518;7.466;2023-03-08T06:33:24;49.83;;;26.40;;
49548;SDS011;35450;44.518;7.466;2023-03-08T06:36:30;52.55;;;26.33;;
49548;SDS011;35450;44.518;7.466;2023-03-08T06:39:36;45.38;;;26.50;;
49548;SDS011;35450;44.518;7.466;2023-03-08T06:42:42;44.90;;;24.92;;
49548;SDS011;35450;44.518;7.466;2023-03-08T06:45:49;47.33;;;23.33;;
49548;SDS011;35450;44.518;7.466;2023-03-08T06:48:53;43.00;;;24.88;;
49548;SDS011;35450;44.518;7.466;2023-03-08T06:51:58;50.08;;;26.42;;
49548;SDS011;35450;44.518;7.466;2023-03-08T06:55:04;52.50;;;26.52;;
49548;SDS011;35450;44.518;7.466;2023-03-08T06:58:08;49.53;;;26.00;;
49548;SDS011;35450;44.518;7.466;2023-03-08T07:01:13;66.57;;;31.98;;
49548;SDS011;35450;44.518;7.466;2023-03-08T07:04:17;76.43;;;34.00;;
49548;SDS011;35450;44.518;7.466;2023-03-08T07:07:21;58.95;;;28.50;;
49548;SDS011;35450;44.518;7.466;2023-03-08T07:10:25;57.60;;;27.60;;
49548;SDS011;35450;44.518;7.466;2023-03-08T07:13:29;47.30;;;26.63;;
49548;SDS011;35450;44.518;7.466;2023-03-08T07:16:33;54.15;;;29.15;;
49548;SDS011;35450;44.518;7.466;2023-03-08T07:19:37;58.05;;;29.88;;
49548;SDS011;35450;44.518;7.466;2023-03-08T07:22:41;65.55;;;32.15;;
49548;SDS011;35450;44.518;7.466;2023-03-08T07:25:46;63.20;;;33.97;;
49548;SDS011;35450;44.518;7.466;2023-03-08T07:28:51;50.65;;;31.45;;
49548;SDS011;35450;44.518;7.466;2023-03-08T07:31:55;55.42;;;31.20;;
49548;SDS011;35450;44.518;7.466;2023-03-08T07:34:59;56.40;;;29.38;;
49548;SDS011;35450;44.518;7.466;2023-03-08T07:38:03;48.45;;;28.00;;
49548;SDS011;35450;44.518;7.466;2023-03-08T07:41:07;60.95;;;28.50;;
49548;SDS011;35450;44.518;7.466;2023-03-08T07:44:11;50.42;;;28.67;;
49548;SDS011;35450;44.518;7.466;2023-03-08T07:47:15;61.90;;;32.28;;
49548;SDS011;35450;44.518;7.466;2023-03-08T07:50:19;46.92;;;28.02;;
49548;SDS011;35450;44.518;7.466;2023-03-08T07:53:23;52.55;;;29.45;;
49548;SDS011;35450;44.518;7.466;2023-03-08T07:56:28;49.10;;;26.58;;
49548;SDS011;35450;44.518;7.466;2023-03-08T07:59:35;44.28;;;25.98;;
49548;SDS011;35450;44.518;7.466;2023-03-08T08:02:39;45.78;;;24.83;;
49548;SDS011;35450;44.518;7.466;2023-03-08T08:05:43;45.53;;;24.77;;
49548;SDS011;35450;44.518;7.466;2023-03-08T08:08:47;43.40;;;23.80;;
49548;SDS011;35450;44.518;7.466;2023-03-08T08:11:51;44.92;;;23.52;;
49548;SDS011;35450;44.518;7.466;2023-03-08T08:14:55;53.53;;;24.60;;
49548;SDS011;35450;44.518;7.466;2023-03-08T08:18:00;39.55;;;22.63;;
49548;SDS011;35450;44.518;7.466;2023-03-08T08:21:08;39.97;;;22.08;;
49548;SDS011;35450;44.518;7.466;2023-03-08T08:24:14;48.95;;;24.60;;
49548;SDS011;35450;44.518;7.466;2023-03-08T08:27:18;46.30;;;26.15;;
49548;SDS011;35450;44.518;7.466;2023-03-08T08:30:22;43.95;;;23.15;;
49548;SDS011;35450;44.518;7.466;2023-03-08T08:33:29;46.97;;;23.55;;
49548;SDS011;35450;44.518;7.466;2023-03-08T08:36:34;52.25;;;26.27;;
49548;SDS011;35450;44.518;7.466;2023-03-08T08:39:39;38.33;;;21.98;;
49548;SDS011;35450;44.518;7.466;2023-03-08T08:42:43;41.22;;;21.88;;
49548;SDS011;35450;44.518;7.466;2023-03-08T08:45:47;42.08;;;24.50;;
49548;SDS011;35450;44.518;7.466;2023-03-08T08:48:56;47.47;;;25.35;;
49548;SDS011;35450;44.518;7.466;2023-03-08T08:52:01;51.63;;;26.20;;
49548;SDS011;35450;44.518;7.466;2023-03-08T08:55:05;48.47;;;25.10;;
49548;SDS011;35450;44.518;7.466;2023-03-08T08:58:09;49.45;;;24.65;;
49548;SDS011;35450;44.518;7.466;2023-03-08T09:01:20;40.95;;;23.10;;
49548;SDS011;35450;44.518;7.466;2023-03-08T09:04:29;40.55;;;22.60;;
49548;SDS011;35450;44.518;7.466;2023-03-08T09:07:32;46.30;;;21.92;;
49548;SDS011;35450;44.518;7.466;2023-03-08T09:10:37;49.03;;;22.15;;
49548;SDS011;35450;44.518;7.466;2023-03-08T09:13:42;39.13;;;22.38;;
49548;SDS011;35450;44.518;7.466;2023-03-08T09:16:46;40.60;;;21.55;;
49548;SDS011;35450;44.518;7.466;2023-03-08T09:19:50;45.08;;;20.77;;
49548;SDS011;35450;44.518;7.466;2023-03-08T09:22:54;29.55;;;16.30;;
49548;SDS011;35450;44.518;7.466;2023-03-08T09:25:58;28.70;;;15.35;;
49548;SDS011;35450;44.518;7.466;2023-03-08T09:29:03;27.30;;;16.10;;
49548;SDS011;35450;44.518;7.466;2023-03-08T09:32:07;28.55;;;14.77;;
49548;SDS011;35450;44.518;7.466;2023-03-08T09:35:11;33.13;;;15.45;;
49548;SDS011;35450;44.518;7.466;2023-03-08T09:38:17;34.05;;;15.70;;
49548;SDS011;35450;44.518;7.466;2023-03-08T09:45:05;26.30;;;14.63;;
49548;SDS011;35450;44.518;7.466;2023-03-08T09:48:31;30.35;;;15.88;;
49548;SDS011;35450;44.518;7.466;2023-03-08T09:51:35;26.65;;;14.50;;
49548;SDS011;35450;44.518;7.466;2023-03-08T09:54:43;30.77;;;14.13;;
49548;SDS011;35450;44.518;7.466;2023-03-08T09:57:50;29.27;;;13.25;;
49548;SDS011;35450;44.518;7.466;2023-03-08T10:00:58;21.13;;;12.50;;
49548;SDS011;35450;44.518;7.466;2023-03-08T10:11:28;23.90;;;11.82;;
49548;SDS011;35450;44.518;7.466;2023-03-08T10:17:46;23.77;;;12.73;;
49548;SDS011;35450;44.518;7.466;2023-03-08T10:20:55;24.10;;;11.45;;
49548;SDS011;35450;44.518;7.466;2023-03-08T10:27:25;28.02;;;12.43;;
49548;SDS011;35450;44.518;7.466;2023-03-08T10:30:36;26.45;;;15.07;;
49548;SDS011;35450;44.518;7.466;2023-03-08T10:33:43;32.72;;;13.05;;
49548;SDS011;35450;44.518;7.466;2023-03-08T10:36:52;25.55;;;12.88;;
49548;SDS011;35450;44.518;7.466;2023-03-08T10:40:09;27.38;;;13.75;;
49548;SDS011;35450;44.518;7.466;2023-03-08T10:43:29;26.77;;;12.43;;
49548;SDS011;35450;44.518;7.466;2023-03-08T10:46:35;27.73;;;12.30;;
49548;SDS011;35450;44.518;7.466;2023-03-08T10:53:22;22.80;;;13.75;;
49548;SDS011;35450;44.518;7.466;2023-03-08T10:56:36;30.10;;;13.35;;
49548;SDS011;35450;44.518;7.466;2023-03-08T10:59:47;26.55;;;14.05;;
49548;SDS011;35450;44.518;7.466;2023-03-08T11:03:00;25.35;;;14.45;;
49548;SDS011;35450;44.518;7.466;2023-03-08T11:06:13;30.67;;;14.65;;
49548;SDS011;35450;44.518;7.466;2023-03-08T11:12:26;23.85;;;14.30;;
49548;SDS011;35450;44.518;7.466;2023-03-08T11:15:31;32.78;;;16.30;;
49548;SDS011;35450;44.518;7.466;2023-03-08T11:22:08;30.52;;;15.82;;
49548;SDS011;35450;44.518;7.466;2023-03-08T11:28:55;26.40;;;14.35;;
49548;SDS011;35450;44.518;7.466;2023-03-08T11:35:33;30.90;;;14.95;;
49548;SDS011;35450;44.518;7.466;2023-03-08T11:38:57;37.03;;;15.32;;
49548;SDS011;35450;44.518;7.466;2023-03-08T11:45:59;29.13;;;16.52;;
49548;SDS011;35450;44.518;7.466;2023-03-08T11:52:42;32.08;;;16.20;;
49548;SDS011;35450;44.518;7.466;2023-03-08T12:02:29;28.52;;;16.15;;
49548;SDS011;35450;44.518;7.466;2023-03-08T12:05:40;25.02;;;16.08;;
49548;SDS011;35450;44.518;7.466;2023-03-08T12:09:08;33.22;;;18.55;;
49548;SDS011;35450;44.518;7.466;2023-03-08T12:19:46;31.65;;;17.00;;
49548;SDS011;35450;44.518;7.466;2023-03-08T12:22:58;29.88;;;17.65;;
49548;SDS011;35450;44.518;7.466;2023-03-08T12:26:21;35.35;;;18.45;;
49548;SDS011;35450;44.518;7.466;2023-03-08T12:29:46;36.92;;;18.17;;
49548;SDS011;35450;44.518;7.466;2023-03-08T12:33:00;30.60;;;16.70;;
49548;SDS011;35450;44.518;7.466;2023-03-08T12:36:07;35.28;;;18.42;;
49548;SDS011;35450;44.518;7.466;2023-03-08T12:39:22;38.95;;;18.83;;
49548;SDS011;35450;44.518;7.466;2023-03-08T12:42:31;34.92;;;18.42;;
49548;SDS011;35450;44.518;7.466;2023-03-08T12:45:59;32.92;;;17.83;;
49548;SDS011;35450;44.518;7.466;2023-03-08T12:49:03;28.92;;;17.27;;
49548;SDS011;35450;44.518;7.466;2023-03-08T12:52:31;29.27;;;18.35;;
49548;SDS011;35450;44.518;7.466;2023-03-08T12:55:39;32.05;;;16.58;;
49548;SDS011;35450;44.518;7.466;2023-03-08T13:02:00;38.03;;;18.95;;
49548;SDS011;35450;44.518;7.466;2023-03-08T13:08:27;40.88;;;18.40;;
49548;SDS011;35450;44.518;7.466;2023-03-08T13:11:41;38.20;;;19.15;;
49548;SDS011;35450;44.518;7.466;2023-03-08T13:18:16;30.08;;;17.45;;
49548;SDS011;35450;44.518;7.466;2023-03-08T13:21:27;30.30;;;17.73;;
49548;SDS011;35450;44.518;7.466;2023-03-08T13:24:39;34.60;;;19.02;;
49548;SDS011;35450;44.518;7.466;2023-03-08T13:28:05;35.40;;;18.00;;
49548;SDS011;35450;44.518;7.466;2023-03-08T13:31:15;32.97;;;17.73;;
49548;SDS011;35450;44.518;7.466;2023-03-08T13:37:31;32.35;;;19.08;;
49548;SDS011;35450;44.518;7.466;2023-03-08T13:40:35;33.90;;;16.83;;
49548;SDS011;35450;44.518;7.466;2023-03-08T13:43:39;33.67;;;19.15;;
49548;SDS011;35450;44.518;7.466;2023-03-08T13:46:44;32.00;;;18.55;;
49548;SDS011;35450;44.518;7.466;2023-03-08T13:49:49;24.58;;;16.20;;
49548;SDS011;35450;44.518;7.466;2023-03-08T13:52:55;28.75;;;16.48;;
49548;SDS011;35450;44.518;7.466;2023-03-08T13:56:00;30.35;;;17.00;;
49548;SDS011;35450;44.518;7.466;2023-03-08T13:59:11;31.67;;;17.55;;
49548;SDS011;35450;44.518;7.466;2023-03-08T14:02:25;32.65;;;17.35;;
49548;SDS011;35450;44.518;7.466;2023-03-08T14:05:33;30.55;;;18.90;;
49548;SDS011;35450;44.518;7.466;2023-03-08T14:08:44;30.50;;;17.90;;
49548;SDS011;35450;44.518;7.466;2023-03-08T14:11:59;33.60;;;19.10;;
49548;SDS011;35450;44.518;7.466;2023-03-08T14:15:15;31.35;;;18.52;;
49548;SDS011;35450;44.518;7.466;2023-03-08T14:18:23;29.02;;;18.05;;
49548;SDS011;35450;44.518;7.466;2023-03-08T14:21:30;28.20;;;17.13;;
49548;SDS011;35450;44.518;7.466;2023-03-08T14:24:34;28.83;;;18.10;;
49548;SDS011;35450;44.518;7.466;2023-03-08T14:27:40;31.75;;;18.15;;
49548;SDS011;35450;44.518;7.466;2023-03-08T14:30:47;24.40;;;17.13;;
49548;SDS011;35450;44.518;7.466;2023-03-08T14:33:59;27.45;;;17.02;;
49548;SDS011;35450;44.518;7.466;2023-03-08T14:43:35;34.40;;;19.27;;
49548;SDS011;35450;44.518;7.466;2023-03-08T14:46:40;29.25;;;18.55;;
49548;SDS011;35450;44.518;7.466;2023-03-08T14:49:52;32.08;;;19.75;;
49548;SDS011;35450;44.518;7.466;2023-03-08T14:53:21;34.90;;;18.55;;
49548;SDS011;35450;44.518;7.466;2023-03-08T14:56:33;29.05;;;18.40;;
49548;SDS011;35450;44.518;7.466;2023-03-08T14:59:40;30.75;;;18.83;;
49548;SDS011;35450;44.518;7.466;2023-03-08T15:02:45;34.28;;;19.55;;
49548;SDS011;35450;44.518;7.466;2023-03-08T15:05:50;37.45;;;20.08;;
49548;SDS011;35450;44.518;7.466;2023-03-08T15:08:55;32.30;;;18.83;;
49548;SDS011;35450;44.518;7.466;2023-03-08T15:12:00;35.65;;;19.48;;
49548;SDS011;35450;44.518;7.466;2023-03-08T15:15:08;33.72;;;20.10;;
49548;SDS011;35450;44.518;7.466;2023-03-08T15:18:16;34.45;;;19.02;;
49548;SDS011;35450;44.518;7.466;2023-03-08T15:21:22;40.67;;;22.08;;
49548;SDS011;35450;44.518;7.466;2023-03-08T15:24:21;31.25;;;19.10;;
49548;SDS011;35450;44.518;7.466;2023-03-08T15:31:07;31.92;;;19.88;;
49548;SDS011;35450;44.518;7.466;2023-03-08T15:34:11;37.35;;;20.67;;
49548;SDS011;35450;44.518;7.466;2023-03-08T15:37:27;28.98;;;19.73;;
49548;SDS011;35450;44.518;7.466;2023-03-08T15:40:33;29.33;;;19.27;;
49548;SDS011;35450;44.518;7.466;2023-03-08T15:43:40;33.45;;;20.58;;
49548;SDS011;35450;44.518;7.466;2023-03-08T15:46:54;35.75;;;20.83;;
49548;SDS011;35450;44.518;7.466;2023-03-08T15:49:58;31.17;;;19.67;;
49548;SDS011;35450;44.518;7.466;2023-03-08T15:53:05;34.95;;;20.70;;
49548;SDS011;35450;44.518;7.466;2023-03-08T15:56:10;32.63;;;20.23;;
49548;SDS011;35450;44.518;7.466;2023-03-08T15:59:14;43.28;;;20.58;;
49548;SDS011;35450;44.518;7.466;2023-03-08T16:02:19;34.90;;;20.17;;
49548;SDS011;35450;44.518;7.466;2023-03-08T16:05:24;31.65;;;19.33;;
49548;SDS011;35450;44.518;7.466;2023-03-08T16:08:29;39.33;;;18.55;;
49548;SDS011;35450;44.518;7.466;2023-03-08T16:11:34;29.55;;;19.13;;
49548;SDS011;35450;44.518;7.466;2023-03-08T16:14:38;31.40;;;19.42;;
49548;SDS011;35450;44.518;7.466;2023-03-08T16:17:48;34.42;;;19.20;;
49548;SDS011;35450;44.518;7.466;2023-03-08T16:20:52;33.65;;;19.02;;
49548;SDS011;35450;44.518;7.466;2023-03-08T16:23:56;32.72;;;18.73;;
49548;SDS011;35450;44.518;7.466;2023-03-08T16:27:02;38.33;;;19.70;;
49548;SDS011;35450;44.518;7.466;2023-03-08T16:30:09;29.67;;;19.33;;
49548;SDS011;35450;44.518;7.466;2023-03-08T16:33:14;36.78;;;20.25;;
49548;SDS011;35450;44.518;7.466;2023-03-08T16:36:18;35.42;;;19.42;;
49548;SDS011;35450;44.518;7.466;2023-03-08T16:39:23;33.03;;;19.73;;
49548;SDS011;35450;44.518;7.466;2023-03-08T16:42:28;36.03;;;20.40;;
49548;SDS011;35450;44.518;7.466;2023-03-08T16:45:33;33.85;;;20.55;;
49548;SDS011;35450;44.518;7.466;2023-03-08T16:48:38;34.33;;;19.65;;
49548;SDS011;35450;44.518;7.466;2023-03-08T16:51:42;34.35;;;21.70;;
49548;SDS011;35450;44.518;7.466;2023-03-08T16:54:48;28.55;;;18.63;;
49548;SDS011;35450;44.518;7.466;2023-03-08T16:57:52;69.68;;;41.55;;
49548;SDS011;35450;44.518;7.466;2023-03-08T17:00:56;54.03;;;29.65;;
49548;SDS011;35450;44.518;7.466;2023-03-08T17:04:01;63.13;;;31.55;;
49548;SDS011;35450;44.518;7.466;2023-03-08T17:07:05;43.92;;;26.23;;
49548;SDS011;35450;44.518;7.466;2023-03-08T17:10:11;46.38;;;28.75;;
49548;SDS011;35450;44.518;7.466;2023-03-08T17:13:15;38.33;;;23.55;;
49548;SDS011;35450;44.518;7.466;2023-03-08T17:16:23;33.17;;;19.90;;
49548;SDS011;35450;44.518;7.466;2023-03-08T17:19:28;37.00;;;20.70;;
49548;SDS011;35450;44.518;7.466;2023-03-08T17:22:33;42.25;;;27.02;;
49548;SDS011;35450;44.518;7.466;2023-03-08T17:25:38;46.90;;;23.80;;
49548;SDS011;35450;44.518;7.466;2023-03-08T17:28:42;36.15;;;19.95;;
49548;SDS011;35450;44.518;7.466;2023-03-08T17:31:47;43.70;;;24.70;;
49548;SDS011;35450;44.518;7.466;2023-03-08T17:34:51;40.60;;;24.35;;
49548;SDS011;35450;44.518;7.466;2023-03-08T17:37:56;38.35;;;20.75;;
49548;SDS011;35450;44.518;7.466;2023-03-08T17:41:04;34.47;;;19.88;;
49548;SDS011;35450;44.518;7.466;2023-03-08T17:44:09;46.50;;;23.02;;
49548;SDS011;35450;44.518;7.466;2023-03-08T17:47:13;40.53;;;21.60;;
49548;SDS011;35450;44.518;7.466;2023-03-08T17:50:17;32.55;;;19.30;;
49548;SDS011;35450;44.518;7.466;2023-03-08T17:53:21;42.67;;;20.60;;
49548;SDS011;35450;44.518;7.466;2023-03-08T17:56:27;62.78;;;23.60;;
49548;SDS011;35450;44.518;7.466;2023-03-08T17:59:33;38.83;;;22.20;;
49548;SDS011;35450;44.518;7.466;2023-03-08T18:02:37;35.53;;;21.67;;
49548;SDS011;35450;44.518;7.466;2023-03-08T18:05:46;52.38;;;22.48;;
49548;SDS011;35450;44.518;7.466;2023-03-08T18:08:52;37.95;;;20.92;;
49548;SDS011;35450;44.518;7.466;2023-03-08T18:11:56;56.53;;;33.53;;
49548;SDS011;35450;44.518;7.466;2023-03-08T18:15:01;37.35;;;22.40;;
49548;SDS011;35450;44.518;7.466;2023-03-08T18:18:05;33.70;;;18.95;;
49548;SDS011;35450;44.518;7.466;2023-03-08T18:21:09;43.15;;;21.75;;
49548;SDS011;35450;44.518;7.466;2023-03-08T18:24:14;42.20;;;23.00;;
49548;SDS011;35450;44.518;7.466;2023-03-08T18:27:18;34.80;;;19.75;;
49548;SDS011;35450;44.518;7.466;2023-03-08T18:30:22;38.35;;;21.70;;
49548;SDS011;35450;44.518;7.466;2023-03-08T18:33:26;41.05;;;23.95;;
49548;SDS011;35450;44.518;7.466;2023-03-08T18:36:30;42.47;;;22.27;;
49548;SDS011;35450;44.518;7.466;2023-03-08T18:39:34;35.97;;;21.42;;
49548;SDS011;35450;44.518;7.466;2023-03-08T18:42:39;37.30;;;22.10;;
49548;SDS011;35450;44.518;7.466;2023-03-08T18:45:50;35.72;;;20.48;;
49548;SDS011;35450;44.518;7.466;2023-03-08T18:52:01;33.38;;;20.65;;
49548;SDS011;35450;44.518;7.466;2023-03-08T18:55:07;57.58;;;31.45;;
49548;SDS011;35450;44.518;7.466;2023-03-08T18:58:12;39.35;;;23.55;;
49548;SDS011;35450;44.518;7.466;2023-03-08T19:01:16;40.65;;;23.63;;
49548;SDS011;35450;44.518;7.466;2023-03-08T19:04:20;33.00;;;20.65;;
49548;SDS011;35450;44.518;7.466;2023-03-08T19:07:23;40.00;;;25.35;;
49548;SDS011;35450;44.518;7.466;2023-03-08T19:10:27;35.20;;;21.67;;
49548;SDS011;35450;44.518;7.466;2023-03-08T19:13:32;35.78;;;21.77;;
49548;SDS011;35450;44.518;7.466;2023-03-08T19:16:36;38.10;;;21.92;;
49548;SDS011;35450;44.518;7.466;2023-03-08T19:19:40;41.63;;;25.25;;
49548;SDS011;35450;44.518;7.466;2023-03-08T19:22:44;41.13;;;23.98;;
49548;SDS011;35450;44.518;7.466;2023-03-08T19:25:48;61.60;;;27.05;;
49548;SDS011;35450;44.518;7.466;2023-03-08T19:29:19;37.90;;;22.90;;
49548;SDS011;35450;44.518;7.466;2023-03-08T19:32:25;47.35;;;26.70;;
49548;SDS011;35450;44.518;7.466;2023-03-08T19:35:29;40.72;;;20.48;;
49548;SDS011;35450;44.518;7.466;2023-03-08T19:38:36;41.17;;;18.58;;